Time;durP1;ratioP1;P1;durP2;ratioP2;P2;SDS_P1;SDS_P2;PMS_P1;PMS_P2;Temp;Humidity;BMP_temperature;BMP_pressure;BME280_temperature;BME280_humidity;BME280_pressure;Samples;Min_cycle;Max_cycle;Signal;HPM_P1;HPM_P2
2023/03/19 00:01:42;;;;;;;106.33;53.03;;;;;;;7.45;100.00;100772.16;5045163;28;20247;-74
2023/03/19 00:04:07;;;;;;;94.27;50.57;;;;;;;7.48;100.00;100765.72;5009280;28;20060;-74
2023/03/19 00:06:32;;;;;;;99.87;49.27;;;;;;;7.53;100.00;100760.81;5045354;28;20074;-74
2023/03/19 00:08:58;;;;;;;101.57;51.03;;;;;;;7.46;100.00;100755.22;5044995;28;20029;-74
2023/03/19 00:11:24;;;;;;;105.18;49.95;;;;;;;7.44;100.00;100746.53;5027216;28;20102;-74
2023/03/19 00:13:51;;;;;;;106.37;54.60;;;;;;;7.38;100.00;100744.47;5027212;28;20045;-74
2023/03/19 00:16:17;;;;;;;91.95;47.95;;;;;;;7.33;100.00;100736.09;5027469;28;20060;-75
2023/03/19 00:18:43;;;;;;;101.72;51.13;;;;;;;7.29;100.00;100740.84;5014258;28;20071;-74
2023/03/19 00:21:08;;;;;;;103.83;51.67;;;;;;;7.26;100.00;100734.97;5045476;28;20036;-74
2023/03/19 00:23:35;;;;;;;118.63;53.30;;;;;;;7.18;100.00;100739.16;5027715;28;20035;-74
2023/03/19 00:26:01;;;;;;;118.85;57.67;;;;;;;7.10;100.00;100739.03;5045356;28;20470;-75
2023/03/19 00:28:27;;;;;;;116.20;56.08;;;;;;;7.11;100.00;100743.34;5044595;28;20051;-73
2023/03/19 00:30:53;;;;;;;113.07;53.80;;;;;;;7.10;100.00;100746.19;5027449;28;20025;-72
2023/03/19 00:33:19;;;;;;;118.28;55.20;;;;;;;7.06;100.00;100744.78;5030980;28;20409;-72
2023/03/19 00:35:45;;;;;;;109.65;54.35;;;;;;;7.01;100.00;100750.50;5010972;28;20028;-72
2023/03/19 00:38:10;;;;;;;120.30;55.05;;;;;;;7.01;100.00;100747.84;5027530;28;20141;-73
2023/03/19 00:40:36;;;;;;;109.82;54.72;;;;;;;7.03;100.00;100753.03;5026547;28;20417;-73
2023/03/19 00:43:01;;;;;;;108.43;55.10;;;;;;;7.05;100.00;100753.72;5027097;28;20967;-73
2023/03/19 00:45:29;;;;;;;127.47;60.17;;;;;;;7.00;100.00;100751.50;5027226;28;20283;-73
2023/03/19 00:47:55;;;;;;;116.40;56.55;;;;;;;6.96;100.00;100753.56;5027270;28;20283;-73
2023/03/19 00:50:20;;;;;;;115.22;56.30;;;;;;;6.95;100.00;100748.38;5026693;28;20524;-72
2023/03/19 00:52:46;;;;;;;105.63;53.08;;;;;;;6.86;100.00;100741.25;5044762;28;20045;-73
2023/03/19 00:55:11;;;;;;;122.47;55.43;;;;;;;6.83;100.00;100745.03;5044650;28;20033;-73
2023/03/19 00:57:36;;;;;;;125.43;58.90;;;;;;;6.89;100.00;100751.63;5010577;28;20021;-73
2023/03/19 01:00:03;;;;;;;147.97;64.27;;;;;;;6.99;100.00;100760.41;5026260;28;20442;-72
2023/03/19 01:02:30;;;;;;;128.15;58.85;;;;;;;7.07;100.00;100772.97;5026233;28;20027;-73
2023/03/19 01:04:55;;;;;;;132.43;62.17;;;;;;;7.08;100.00;100770.19;5026558;28;20033;-73
2023/03/19 01:07:21;;;;;;;116.67;57.73;;;;;;;7.15;100.00;100773.97;5048241;28;20474;-74
2023/03/19 01:09:46;;;;;;;120.40;58.80;;;;;;;7.16;100.00;100766.84;5039809;28;20043;-73
2023/03/19 01:12:12;;;;;;;117.40;56.63;;;;;;;7.16;100.00;100761.53;5013948;28;20036;-73
2023/03/19 01:14:37;;;;;;;126.75;59.85;;;;;;;7.14;100.00;100759.03;5048498;28;20029;-73
2023/03/19 01:17:03;;;;;;;123.13;58.27;;;;;;;7.07;100.00;100752.59;5040751;28;20060;-73
2023/03/19 01:19:29;;;;;;;119.27;58.90;;;;;;;7.22;100.00;100754.84;5040024;28;20029;-73
2023/03/19 01:21:54;;;;;;;127.63;59.13;;;;;;;7.14;100.00;100750.19;5013519;28;20025;-73
2023/03/19 01:24:21;;;;;;;119.32;59.38;;;;;;;7.23;100.00;100744.06;5013384;28;20065;-73
2023/03/19 01:26:51;;;;;;;110.78;55.45;;;;;;;7.29;100.00;100738.19;5030153;28;20036;-73
2023/03/19 01:29:29;;;;;;;112.43;56.78;;;;;;;7.26;100.00;100735.81;5025764;28;20024;-73
2023/03/19 01:31:57;;;;;;;127.18;62.40;;;;;;;7.16;100.00;100719.91;5028348;28;20063;-73
2023/03/19 01:34:47;;;;;;;121.35;62.70;;;;;;;7.02;100.00;100716.81;5047856;28;20053;-73
2023/03/19 01:37:15;;;;;;;120.10;59.72;;;;;;;6.97;100.00;100722.53;5048000;28;20416;-73
2023/03/19 01:39:41;;;;;;;117.80;58.25;;;;;;;7.02;100.00;100738.06;5039271;28;20429;-73
2023/03/19 01:42:11;;;;;;;122.78;61.05;;;;;;;6.97;100.00;100725.19;5022235;28;20620;-73
2023/03/19 01:44:46;;;;;;;116.65;62.17;;;;;;;6.89;100.00;100723.25;5029535;28;20446;-73
2023/03/19 01:47:41;;;;;;;124.07;63.75;;;;;;;6.75;100.00;100729.81;5026925;28;20497;-73
2023/03/19 01:50:24;;;;;;;130.68;63.47;;;;;;;6.69;100.00;100734.81;5045938;28;20099;-73
2023/03/19 01:52:58;;;;;;;110.43;56.08;;;;;;;6.62;100.00;100734.53;5028385;28;20040;-73
2023/03/19 01:55:46;;;;;;;109.30;55.33;;;;;;;6.58;100.00;100738.44;5023268;28;20032;-73
2023/03/19 01:58:38;;;;;;;120.75;57.08;;;;;;;6.42;100.00;100719.56;5025574;28;20375;-73
2023/03/19 02:01:14;;;;;;;109.18;52.95;;;;;;;6.32;100.00;100712.44;5013985;28;20406;-73
2023/03/19 02:03:45;;;;;;;112.47;55.17;;;;;;;6.26;100.00;100709.47;5029891;28;20071;-73
2023/03/19 02:06:16;;;;;;;112.57;53.58;;;;;;;6.19;100.00;100705.69;5031850;28;20116;-73
2023/03/19 02:08:42;;;;;;;113.10;53.15;;;;;;;6.20;100.00;100708.19;5029199;28;20045;-73
2023/03/19 02:11:08;;;;;;;114.07;56.47;;;;;;;6.15;100.00;100702.47;5025358;28;20020;-73
2023/03/19 02:13:35;;;;;;;113.68;55.83;;;;;;;6.09;100.00;100697.72;5047599;22;20068;-79
2023/03/19 02:16:01;;;;;;;106.88;53.33;;;;;;;6.08;100.00;100701.31;5021081;28;20897;-81
2023/03/19 02:18:26;;;;;;;110.10;51.40;;;;;;;6.03;100.00;100698.22;5010254;28;20044;-78
2023/03/19 02:21:05;;;;;;;108.10;54.67;;;;;;;6.01;100.00;100710.78;5010484;28;20379;-78
2023/03/19 02:23:46;;;;;;;124.15;54.10;;;;;;;6.01;100.00;100711.59;5017677;28;20041;-77
2023/03/19 02:26:17;;;;;;;114.45;54.72;;;;;;;6.01;100.00;100716.06;5012398;28;20021;-77
2023/03/19 02:28:46;;;;;;;116.60;56.45;;;;;;;6.01;100.00;100713.44;5008198;28;20037;-77
2023/03/19 02:31:17;;;;;;;115.68;53.80;;;;;;;5.98;100.00;100709.25;4994642;28;20470;-77
2023/03/19 02:33:43;;;;;;;106.70;48.45;;;;;;;5.95;100.00;100711.31;5026678;28;20460;-80
2023/03/19 02:36:17;;;;;;;107.85;53.75;;;;;;;5.92;100.00;100707.94;5027191;28;20026;-79
2023/03/19 02:38:45;;;;;;;112.38;52.33;;;;;;;5.93;100.00;100709.59;5010447;28;20044;-77
2023/03/19 02:41:10;;;;;;;107.97;51.45;;;;;;;5.97;100.00;100706.72;5026453;28;20144;-80
2023/03/19 02:43:40;;;;;;;103.55;48.63;;;;;;;5.90;100.00;100709.88;4993876;28;20147;-76
2023/03/19 02:46:10;;;;;;;110.70;51.47;;;;;;;5.92;100.00;100721.19;4993958;28;20075;-78
2023/03/19 02:48:36;;;;;;;109.40;48.65;;;;;;;5.88;100.00;100716.28;5026281;28;20060;-79
2023/03/19 02:51:02;;;;;;;96.30;47.75;;;;;;;5.84;100.00;100704.28;5004155;28;20767;-76
2023/03/19 02:53:27;;;;;;;108.47;50.03;;;;;;;5.84;100.00;100705.09;5027953;28;20037;-75
2023/03/19 02:55:53;;;;;;;104.30;49.77;;;;;;;5.79;100.00;100695.88;5014155;28;20169;-79
2023/03/19 02:58:19;;;;;;;102.10;47.43;;;;;;;5.72;100.00;100696.41;5011481;28;20033;-77
2023/03/19 03:00:45;;;;;;;99.68;48.10;;;;;;;5.72;100.00;100692.91;5010131;28;20276;-77
2023/03/19 03:03:10;;;;;;;92.78;46.78;;;;;;;5.73;100.00;100705.19;5010777;28;20090;-80
2023/03/19 03:05:36;;;;;;;110.70;49.80;;;;;;;5.64;100.00;100700.66;4996032;28;20030;-80
2023/03/19 03:08:03;;;;;;;98.88;47.78;;;;;;;5.61;100.00;100703.59;4993973;28;20045;-80
2023/03/19 03:10:28;;;;;;;98.57;48.75;;;;;;;5.63;100.00;100706.94;5010024;28;20037;-77
2023/03/19 03:12:54;;;;;;;85.50;43.40;;;;;;;5.56;100.00;100709.28;5019360;28;20034;-75
2023/03/19 03:15:20;;;;;;;96.13;47.07;;;;;;;5.50;100.00;100710.66;5011641;28;20031;-77
2023/03/19 03:17:45;;;;;;;95.45;44.88;;;;;;;5.47;100.00;100704.78;4999600;28;20529;-80
2023/03/19 03:20:13;;;;;;;92.65;45.95;;;;;;;5.38;100.00;100695.78;5010982;28;20068;-75
2023/03/19 03:22:39;;;;;;;107.13;48.97;;;;;;;5.36;100.00;100703.06;5025814;28;20116;-75
2023/03/19 03:25:05;;;;;;;;;;;;;;;5.29;100.00;100696.56;5011595;28;20029;-77
2023/03/19 03:27:31;;;;;;;90.43;46.25;;;;;;;5.25;100.00;100698.66;5008688;28;19974;-77
2023/03/19 03:29:56;;;;;;;95.10;48.53;;;;;;;5.24;100.00;100696.13;5002022;28;20039;-78
2023/03/19 03:32:22;;;;;;;94.20;48.90;;;;;;;5.27;100.00;100691.41;4992586;28;20288;-78
2023/03/19 03:34:48;;;;;;;99.45;50.20;;;;;;;5.31;100.00;100707.88;5025283;28;20037;-77
2023/03/19 03:37:13;;;;;;;95.63;49.08;;;;;;;5.27;100.00;100706.47;5011789;28;20403;-76
2023/03/19 03:39:39;;;;;;;102.65;50.42;;;;;;;5.24;100.00;100698.75;4992290;28;20029;-77
2023/03/19 03:42:05;;;;;;;95.18;48.10;;;;;;;5.21;100.00;100704.31;5024737;28;20041;-76
2023/03/19 03:44:31;;;;;;;99.93;50.75;;;;;;;5.17;100.00;100700.25;4996262;28;20532;-79
2023/03/19 03:46:57;;;;;;;99.33;49.67;;;;;;;5.11;100.00;100708.72;4992072;28;20045;-78
2023/03/19 03:49:22;;;;;;;97.63;51.05;;;;;;;5.05;100.00;100713.53;5024768;28;20068;-78
2023/03/19 03:51:47;;;;;;;90.10;46.47;;;;;;;4.98;100.00;100712.38;5025401;28;20029;-78
2023/03/19 03:54:13;;;;;;;97.15;46.97;;;;;;;4.98;100.00;100707.06;5025204;28;20025;-76
2023/03/19 03:56:38;;;;;;;87.50;44.90;;;;;;;4.94;100.00;100705.69;5025052;28;20047;-78
2023/03/19 03:59:04;;;;;;;95.97;47.90;;;;;;;4.91;100.00;100700.63;4991626;28;20736;-76
2023/03/19 04:01:29;;;;;;;85.07;42.67;;;;;;;4.88;100.00;100698.22;5009047;28;20516;-76
2023/03/19 04:03:55;;;;;;;82.20;41.85;;;;;;;4.84;100.00;100702.91;5008747;28;20126;-79
2023/03/19 04:06:23;;;;;;;90.80;44.25;;;;;;;4.89;100.00;100699.91;5010315;28;20057;-77
2023/03/19 04:09:01;;;;;;;107.50;49.75;;;;;;;4.97;100.00;100705.41;5008073;28;20496;-79
2023/03/19 04:11:26;;;;;;;100.80;47.67;;;;;;;5.02;100.00;100719.09;5024648;28;20029;-78
2023/03/19 04:13:56;;;;;;;95.30;44.40;;;;;;;4.90;100.00;100706.88;5024240;28;20049;-76
2023/03/19 04:16:23;;;;;;;116.28;50.25;;;;;;;4.98;100.00;100717.66;4995992;28;20052;-76
2023/03/19 04:18:49;;;;;;;117.43;52.50;;;;;;;4.98;100.00;100719.47;4991440;28;20029;-77
2023/03/19 04:21:14;;;;;;;116.53;50.38;;;;;;;4.96;100.00;100727.53;4995004;28;20512;-77
2023/03/19 04:23:40;;;;;;;87.75;42.20;;;;;;;4.74;100.00;100720.53;5008014;28;20192;-76
2023/03/19 04:26:06;;;;;;;111.18;44.58;;;;;;;4.59;100.00;100719.97;5010001;28;20112;-75
2023/03/19 04:28:32;;;;;;;94.70;47.08;;;;;;;4.59;100.00;100712.03;5027253;28;20525;-78
2023/03/19 04:31:03;;;;;;;76.30;39.67;;;;;;;4.53;100.00;100717.81;4993903;28;20033;-78
2023/03/19 04:33:32;;;;;;;96.28;44.20;;;;;;;4.47;100.00;100713.03;5027147;28;20037;-78
2023/03/19 04:35:57;;;;;;;;;;;;;;;4.43;100.00;100711.59;5009566;28;20038;-79
2023/03/19 04:38:27;;;;;;;81.60;39.65;;;;;;;4.44;100.00;100713.28;5025662;28;19951;-79
2023/03/19 04:40:53;;;;;;;88.45;42.22;;;;;;;4.47;100.00;100707.72;5009740;28;20041;-79
2023/03/19 04:43:19;;;;;;;96.95;45.15;;;;;;;4.50;100.00;100711.97;4997764;28;20036;-79
2023/03/19 04:45:45;;;;;;;;;;;;;;;4.49;100.00;100711.09;5027226;28;20117;-75
2023/03/19 04:48:11;;;;;;;91.25;43.78;;;;;;;4.39;100.00;100704.88;5012848;28;20054;-78
2023/03/19 04:50:39;;;;;;;100.43;46.20;;;;;;;4.42;100.00;100715.19;5026667;28;20026;-76
2023/03/19 04:53:04;;;;;;;82.95;41.85;;;;;;;4.38;100.00;100711.97;5027959;28;20029;-79
2023/03/19 04:55:30;;;;;;;82.38;38.35;;;;;;;4.26;100.00;100714.75;4994182;28;20022;-76
2023/03/19 04:58:03;;;;;;;80.18;39.72;;;;;;;4.20;100.00;100710.81;5004467;28;20030;-79
2023/03/19 05:00:31;;;;;;;87.13;41.00;;;;;;;4.23;100.00;100706.09;4994813;28;20433;-78
2023/03/19 05:02:57;;;;;;;93.22;42.33;;;;;;;4.25;100.00;100715.72;5002743;28;20033;-79
2023/03/19 05:05:23;;;;;;;85.70;41.95;;;;;;;4.25;100.00;100708.63;4994556;28;20022;-79
2023/03/19 05:07:49;;;;;;;80.80;39.58;;;;;;;4.23;100.00;100700.81;5027354;28;20120;-80
2023/03/19 05:10:14;;;;;;;98.80;46.60;;;;;;;4.17;100.00;100706.59;5011634;28;20108;-78
2023/03/19 05:12:40;;;;;;;94.05;45.13;;;;;;;4.15;100.00;100690.03;5027326;28;20054;-76
2023/03/19 05:15:06;;;;;;;94.05;46.47;;;;;;;4.15;100.00;100708.53;5027164;28;20044;-78
2023/03/19 05:17:35;;;;;;;91.75;41.25;;;;;;;4.11;100.00;100703.59;5010821;28;20095;-76
2023/03/19 05:20:10;;;;;;;84.72;42.92;;;;;;;4.10;100.00;100702.78;4994957;28;20509;-79
2023/03/19 05:22:37;;;;;;;89.13;43.33;;;;;;;4.12;100.00;100703.50;4994555;28;20116;-79
2023/03/19 05:25:04;;;;;;;92.50;45.97;;;;;;;4.06;100.00;100685.47;4994929;28;20117;-80
2023/03/19 05:27:29;;;;;;;;;;;;;;;4.09;100.00;100698.44;5013127;28;20038;-79
2023/03/19 05:30:00;;;;;;;88.05;41.08;;;;;;;4.09;100.00;100687.84;5009973;28;20216;-76
2023/03/19 05:32:39;;;;;;;104.20;46.15;;;;;;;4.16;100.00;100691.69;5012674;28;20372;-80
2023/03/19 05:35:07;;;;;;;114.95;49.08;;;;;;;4.27;100.00;100697.94;5027213;28;20570;-80
2023/03/19 05:37:34;;;;;;;128.05;54.15;;;;;;;4.35;100.00;100706.09;5021228;28;20017;-78
2023/03/19 05:39:59;;;;;;;98.03;47.57;;;;;;;4.31;100.00;100709.94;5014907;28;20053;-76
2023/03/19 05:42:25;;;;;;;101.40;46.40;;;;;;;4.30;100.00;100716.19;5016017;28;21216;-79
2023/03/19 05:44:50;;;;;;;96.93;43.53;;;;;;;4.22;100.00;100704.44;5002960;28;20049;-76
2023/03/19 05:47:21;;;;;;;90.20;44.53;;;;;;;4.24;100.00;100706.97;5011356;28;20116;-75
2023/03/19 05:49:51;;;;;;;78.25;38.20;;;;;;;4.29;100.00;100717.16;5026652;28;20526;-77
2023/03/19 05:52:17;;;;;;;86.38;43.33;;;;;;;4.32;100.00;100714.28;5014377;28;20040;-75
2023/03/19 05:54:43;;;;;;;;;;;;;;;4.41;100.00;100721.47;5013770;28;20033;-76
2023/03/19 05:57:18;;;;;;;111.43;48.10;;;;;;;4.44;100.00;100713.28;5013100;28;19913;-78
2023/03/19 05:59:48;;;;;;;99.38;50.33;;;;;;;4.48;100.00;100716.53;5030267;28;20515;-77
2023/03/19 06:02:39;;;;;;;109.30;49.00;;;;;;;4.45;100.00;100714.97;5028680;28;20041;-78
2023/03/19 06:05:28;;;;;;;102.82;49.05;;;;;;;4.57;100.00;100723.72;5025631;28;20599;-76
2023/03/19 06:07:57;;;;;;;103.57;48.80;;;;;;;4.68;100.00;100728.13;4995574;28;20039;-76
2023/03/19 06:10:42;;;;;;;94.30;43.83;;;;;;;4.76;100.00;100733.63;4999390;28;20126;-74
2023/03/19 06:13:10;;;;;;;106.90;47.35;;;;;;;4.79;100.00;100736.03;5014554;28;20474;-79
2023/03/19 06:15:42;;;;;;;96.03;44.92;;;;;;;4.87;100.00;100730.97;5013971;28;20091;-78
2023/03/19 06:18:33;;;;;;;92.68;46.58;;;;;;;4.92;100.00;100733.22;5015090;28;20086;-79
2023/03/19 06:21:04;;;;;;;83.78;40.83;;;;;;;4.97;100.00;100723.94;5006085;28;20030;-78
2023/03/19 06:23:30;;;;;;;;;;;;;;;5.07;100.00;100727.47;5013641;28;20484;-76
2023/03/19 06:25:55;;;;;;;87.22;41.67;;;;;;;5.14;100.00;100721.69;5024430;28;19917;-76
2023/03/19 06:28:23;;;;;;;100.85;50.38;;;;;;;5.34;100.00;100723.50;5014209;28;20060;-78
2023/03/19 06:30:48;;;;;;;116.20;53.43;;;;;;;5.45;100.00;100728.72;4996162;28;20394;-76
2023/03/19 06:33:32;;;;;;;95.32;46.20;;;;;;;5.56;100.00;100737.59;5026265;28;20846;-77
2023/03/19 06:35:58;;;;;;;107.65;47.65;;;;;;;5.57;100.00;100739.25;5007378;28;20152;-77
2023/03/19 06:38:24;;;;;;;87.27;44.90;;;;;;;5.63;100.00;100746.69;4995494;28;20116;-79
2023/03/19 06:40:49;;;;;;;91.90;47.47;;;;;;;5.70;100.00;100737.25;5027921;28;20288;-78
2023/03/19 06:43:16;;;;;;;82.00;43.90;;;;;;;5.75;100.00;100739.50;5013228;28;20032;-76
2023/03/19 06:45:41;;;;;;;;;;;;;;;5.87;100.00;100744.56;5029101;28;20042;-77
2023/03/19 06:48:06;;;;;;;82.30;45.10;;;;;;;5.89;100.00;100736.50;5015925;28;19921;-77
2023/03/19 06:50:32;;;;;;;77.53;39.97;;;;;;;5.95;100.00;100732.50;4996367;28;20034;-78
2023/03/19 06:52:57;;;;;;;81.53;41.90;;;;;;;6.08;100.00;100743.72;5023253;28;20033;-78
2023/03/19 06:55:23;;;;;;;80.50;44.13;;;;;;;6.23;100.00;100747.72;5012783;28;20360;-79
2023/03/19 06:57:49;;;;;;;76.03;41.08;;;;;;;6.42;100.00;100759.34;5028986;28;20048;-78
2023/03/19 07:00:15;;;;;;;92.22;45.63;;;;;;;6.62;100.00;100765.53;5029667;28;20029;-74
2023/03/19 07:02:41;;;;;;;90.28;45.65;;;;;;;6.79;100.00;100754.25;5029588;28;20107;-77
2023/03/19 07:05:07;;;;;;;77.70;40.83;;;;;;;7.02;100.00;100752.16;5005548;28;20469;-78
2023/03/19 07:07:32;;;;;;;76.20;43.50;;;;;;;7.11;100.00;100745.19;4996083;28;20437;-79
2023/03/19 07:09:58;;;;;;;82.43;41.20;;;;;;;7.21;100.00;100747.84;5027735;28;20049;-77
2023/03/19 07:12:26;;;;;;;75.10;40.97;;;;;;;7.38;100.00;100750.63;4995131;28;20033;-78
2023/03/19 07:14:53;;;;;;;71.90;39.28;;;;;;;7.50;100.00;100750.47;5020794;28;20280;-77
2023/03/19 07:17:18;;;;;;;68.97;38.65;;;;;;;7.66;100.00;100760.53;5016910;28;20029;-77
2023/03/19 07:19:43;;;;;;;75.70;37.97;;;;;;;7.54;100.00;100739.41;4994942;28;20104;-76
2023/03/19 07:22:09;;;;;;;69.20;37.97;;;;;;;7.54;100.00;100727.97;5013162;28;20068;-77
2023/03/19 07:24:34;;;;;;;66.63;37.73;;;;;;;7.75;100.00;100736.56;5011293;28;20037;-77
2023/03/19 07:26:59;;;;;;;60.30;35.37;;;;;;;7.91;100.00;100733.28;5011156;28;20049;-78
2023/03/19 07:29:25;;;;;;;67.00;37.20;;;;;;;8.10;100.00;100740.38;5010231;28;20033;-76
2023/03/19 07:31:50;;;;;;;67.87;38.40;;;;;;;8.32;100.00;100756.94;4994203;28;20025;-75
2023/03/19 07:34:15;;;;;;;62.80;38.67;;;;;;;8.35;100.00;100738.00;5011662;28;20454;-76
2023/03/19 07:36:41;;;;;;;60.40;39.13;;;;;;;8.42;100.00;100739.94;4994263;28;20283;-78
2023/03/19 07:39:06;;;;;;;62.57;36.60;;;;;;;8.48;100.00;100733.22;5009139;28;20037;-76
2023/03/19 07:41:31;;;;;;;60.37;34.83;;;;;;;8.53;100.00;100735.41;4994082;28;20028;-78
2023/03/19 07:43:57;;;;;;;59.83;37.27;;;;;;;8.61;100.00;100740.81;5003716;28;20041;-78
2023/03/19 07:46:22;;;;;;;60.73;35.00;;;;;;;8.65;100.00;100728.88;5030873;28;20025;-77
2023/03/19 07:48:48;;;;;;;54.70;34.00;;;;;;;8.83;100.00;100737.72;5029044;28;20613;-79
2023/03/19 07:51:13;;;;;;;52.40;33.73;;;;;;;8.94;100.00;100738.47;5012569;28;20116;-78
2023/03/19 07:53:38;;;;;;;45.03;30.20;;;;;;;9.14;100.00;100740.00;5017227;28;20492;-77
2023/03/19 07:56:04;;;;;;;51.70;32.33;;;;;;;9.23;100.00;100733.75;5010173;28;20172;-80
2023/03/19 07:58:30;;;;;;;54.13;31.27;;;;;;;9.29;100.00;100732.28;5028828;28;20037;-78
2023/03/19 08:00:55;;;;;;;59.27;33.43;;;;;;;9.25;100.00;100729.13;5027485;28;20108;-75
2023/03/19 08:03:20;;;;;;;46.97;30.47;;;;;;;9.49;100.00;100728.47;5013787;28;20033;-76
2023/03/19 08:05:49;;;;;;;47.97;30.17;;;;;;;9.73;100.00;100735.78;4992812;28;20017;-76
2023/03/19 08:08:15;;;;;;;48.83;27.65;;;;;;;9.87;100.00;100726.34;5005992;28;20033;-77
2023/03/19 08:10:40;;;;;;;41.60;26.58;;;;;;;10.12;100.00;100722.00;5022566;28;20072;-75
2023/03/19 08:13:05;;;;;;;38.63;26.23;;;;;;;10.35;100.00;100713.44;5049197;23;20482;-83
2023/03/19 08:15:31;;;;;;;43.60;24.97;;;;;;;10.77;100.00;100723.22;5028740;28;20037;-82
2023/03/19 08:17:58;;;;;;;35.65;23.70;;;;;;;10.98;100.00;100693.38;5028674;28;20075;-84
2023/03/19 08:20:23;;;;;;;29.38;20.50;;;;;;;11.22;100.00;100662.31;5011551;28;20516;-85
2023/03/19 08:22:49;;;;;;;30.77;19.37;;;;;;;11.47;100.00;100628.31;5011704;28;20041;-84
2023/03/19 08:25:15;;;;;;;28.40;19.63;;;;;;;11.26;100.00;100602.16;5029042;28;20090;-82
2023/03/19 08:27:40;;;;;;;30.40;18.87;;;;;;;11.47;100.00;100582.88;4995590;28;20045;-81
2023/03/19 08:30:07;;;;;;;29.38;18.70;;;;;;;11.53;100.00;100571.50;5012234;28;20021;-82
2023/03/19 08:32:33;;;;;;;26.55;18.85;;;;;;;11.45;100.00;100542.97;5011820;28;20118;-84
2023/03/19 08:34:59;;;;;;;26.55;16.42;;;;;;;11.12;100.00;100527.06;5010879;28;20614;-84
2023/03/19 08:37:24;;;;;;;23.33;16.10;;;;;;;11.21;100.00;100530.50;4995549;28;20115;-83
2023/03/19 08:39:51;;;;;;;24.93;17.40;;;;;;;11.21;100.00;100541.19;5011498;28;20292;-80
2023/03/19 08:42:17;;;;;;;23.35;15.45;;;;;;;11.25;100.00;100541.69;5028371;23;20319;-73
2023/03/19 08:44:43;;;;;;;20.85;14.48;;;;;;;10.99;100.00;100540.94;5046718;28;20083;-71
2023/03/19 08:47:08;;;;;;;20.20;14.67;;;;;;;11.10;100.00;100560.28;5044155;28;20024;-74
2023/03/19 08:49:33;;;;;;;17.97;12.77;;;;;;;11.04;100.00;100550.28;5066716;28;20043;-71
2023/03/19 08:51:59;;;;;;;15.70;11.43;;;;;;;11.14;100.00;100558.91;5061943;28;20060;-71
2023/03/19 08:54:24;;;;;;;17.33;12.83;;;;;;;11.57;100.00;100581.69;5063219;28;20820;-72
2023/03/19 08:56:50;;;;;;;25.20;13.73;;;;;;;11.41;100.00;100547.81;5067025;23;20133;-75
2023/03/19 08:59:15;;;;;;;18.27;14.03;;;;;;;11.49;100.00;100530.06;5033609;28;20049;-76
2023/03/19 09:01:40;;;;;;;15.60;11.97;;;;;;;11.52;100.00;100509.19;5052005;28;20481;-75
2023/03/19 09:04:06;;;;;;;18.57;13.13;;;;;;;11.59;100.00;100499.47;5035095;28;20037;-72
2023/03/19 09:06:31;;;;;;;16.33;12.30;;;;;;;11.52;100.00;100481.59;5036589;28;20114;-72
2023/03/19 09:08:56;;;;;;;17.73;13.57;;;;;;;11.78;100.00;100492.84;5022962;28;20052;-74
2023/03/19 09:11:22;;;;;;;19.83;12.63;;;;;;;11.96;100.00;100473.00;5023811;28;20071;-72
2023/03/19 09:13:48;;;;;;;18.87;11.87;;;;;;;12.17;100.00;100456.28;5023653;28;20036;-72
2023/03/19 09:16:13;;;;;;;19.00;12.30;;;;;;;11.53;100.00;100344.25;5024935;28;20029;-72
2023/03/19 09:18:39;;;;;;;20.02;12.15;;;;;;;11.30;100.00;100376.31;5023890;28;20026;-74
2023/03/19 09:21:04;;;;;;;20.23;11.97;;;;;;;11.59;100.00;100437.97;5039669;28;20275;-72
2023/03/19 09:23:30;;;;;;;18.25;12.10;;;;;;;11.67;100.00;100437.06;5023482;28;20291;-75
2023/03/19 09:25:55;;;;;;;18.70;11.93;;;;;;;11.47;100.00;100417.13;5035628;28;20037;-77
2023/03/19 09:28:20;;;;;;;15.87;12.03;;;;;;;11.53;100.00;100436.00;5043494;28;20037;-76
2023/03/19 09:30:48;;;;;;;20.20;11.77;;;;;;;11.78;100.00;100463.41;5043759;28;20030;-72
2023/03/19 09:33:15;;;;;;;19.35;12.07;;;;;;;11.77;100.00;100418.94;5028156;28;20064;-74
2023/03/19 09:35:40;;;;;;;18.17;11.13;;;;;;;12.07;100.00;100427.13;5028320;28;20060;-76
2023/03/19 09:38:06;;;;;;;22.95;11.68;;;;;;;12.50;100.00;100368.47;5027872;28;20505;-72
2023/03/19 09:40:42;;;;;;;17.90;11.50;;;;;;;12.41;100.00;100289.28;5028154;28;20040;-72
2023/03/19 09:43:38;;;;;;;16.40;11.02;;;;;;;12.89;100.00;100281.63;5023392;28;20490;-74
2023/03/19 09:46:13;;;;;;;14.25;9.75;;;;;;;13.89;100.00;100191.34;5033183;28;20021;-73
2023/03/19 09:48:51;;;;;;;14.93;9.68;;;;;;;14.82;100.00;100045.78;5028222;28;20466;-72
2023/03/19 09:51:24;;;;;;;12.90;9.32;;;;;;;15.53;100.00;99802.94;5027604;28;20104;-72
2023/03/19 09:54:24;;;;;;;12.15;8.73;;;;;;;16.32;100.00;99614.78;5027775;28;20038;-72
2023/03/19 09:56:49;;;;;;;17.33;10.05;;;;;;;14.98;100.00;99253.34;5025325;28;20041;-73
2023/03/19 09:59:15;;;;;;;16.00;10.30;;;;;;;14.40;100.00;99317.44;5043010;28;20150;-76
2023/03/19 10:01:47;;;;;;;11.68;9.27;;;;;;;14.16;100.00;99489.03;5026479;28;20049;-75
2023/03/19 10:04:37;;;;;;;12.57;7.82;;;;;;;14.55;100.00;99635.66;5030715;28;20124;-72
2023/03/19 10:07:23;;;;;;;10.07;7.75;;;;;;;14.67;100.00;99501.47;5023233;28;20478;-72
2023/03/19 10:10:04;;;;;;;12.77;7.45;;;;;;;15.06;100.00;99429.59;5042572;28;20037;-73
2023/03/19 10:12:44;;;;;;;9.93;7.25;;;;;;;15.16;100.00;99403.00;5024276;28;20048;-72
2023/03/19 10:15:29;;;;;;;9.50;6.60;;;;;;;16.58;100.00;99555.16;5026682;28;20029;-73
2023/03/19 10:18:06;;;;;;;10.13;7.32;;;;;;;17.62;100.00;99093.13;5009604;28;20586;-76
2023/03/19 10:20:43;;;;;;;9.13;6.95;;;;;;;18.04;99.42;98749.72;5039265;28;20044;-72
2023/03/19 10:23:22;;;;;;;10.23;6.95;;;;;;;17.70;95.16;98463.94;5022515;28;20056;-72
2023/03/19 10:25:54;;;;;;;8.45;5.97;;;;;;;17.53;95.22;98622.50;5026129;28;20402;-72
2023/03/19 10:28:21;;;;;;;9.40;7.13;;;;;;;17.59;93.30;98580.19;5027405;28;20529;-72
2023/03/19 10:31:25;;;;;;;8.40;6.05;;;;;;;18.01;92.50;98687.34;5027279;28;20017;-72
2023/03/19 10:34:01;;;;;;;7.68;6.55;;;;;;;18.35;90.77;98658.88;5026207;28;20120;-75
2023/03/19 10:36:33;;;;;;;8.20;6.18;;;;;;;18.20;88.19;98468.97;5020587;28;20076;-72
2023/03/19 10:38:58;;;;;;;7.63;6.45;;;;;;;17.92;88.00;98498.06;5040710;28;20091;-72
2023/03/19 10:41:50;;;;;;;11.97;6.53;;;;;;;17.73;87.52;98449.13;5027218;28;20417;-75
2023/03/19 10:44:32;;;;;;;7.72;6.22;;;;;;;17.20;87.38;98429.47;5022390;28;20037;-75
2023/03/19 10:46:58;;;;;;;8.93;5.45;;;;;;;17.69;86.79;98556.75;5026867;28;20544;-73
2023/03/19 10:49:24;;;;;;;10.15;6.70;;;;;;;18.29;85.43;98597.00;5026622;28;20112;-75
2023/03/19 10:51:50;;;;;;;12.25;6.55;;;;;;;19.01;82.68;98507.91;5026265;28;20164;-74
2023/03/19 10:54:23;;;;;;;8.85;6.20;;;;;;;19.06;80.49;98353.75;5026915;28;20450;-74
2023/03/19 10:56:50;;;;;;;8.35;6.00;;;;;;;19.22;78.76;98214.69;5026845;28;20037;-72
2023/03/19 10:59:25;;;;;;;8.25;5.55;;;;;;;18.24;79.33;98127.06;5041996;28;20049;-73
2023/03/19 11:01:56;;;;;;;9.45;6.13;;;;;;;17.83;80.93;98297.22;5025482;28;20132;-72
2023/03/19 11:04:22;;;;;;;6.85;6.20;;;;;;;17.24;82.11;98317.31;5042052;28;20033;-73
2023/03/19 11:06:49;;;;;;;;;;;;;;;17.92;83.35;98774.19;5026911;28;20089;-72
2023/03/19 11:09:21;;;;;;;7.63;5.30;;;;;;;17.83;82.16;98610.31;5025061;28;19920;-72
2023/03/19 11:11:56;;;;;;;10.30;5.43;;;;;;;17.81;82.13;98674.53;5023935;28;20034;-72
2023/03/19 11:14:33;;;;;;;8.85;5.47;;;;;;;17.12;82.24;98538.63;5022038;28;20068;-72
2023/03/19 11:17:05;;;;;;;10.95;6.65;;;;;;;17.01;83.05;98631.25;5025428;28;20406;-73